Amity, Pennsylvania
Current Conditions -  °F | °C
As of 7:15 PM on Wednesday 26 Nov 2014 (Local Time) from KAFJ Reporting Station
Overcast Overcast  
Wind Chill:   Ceiling: 400
Heat Index:   Visibility: 4mi
Dew Point: -1°   Wind: 3mph
Humidity: 93%   Direction: 330°NNW
Pressure: 30.01"   Gusts: NA
Location:  40.03°N, 80.2°W
Report Text: KAFJ 270015Z 33003KT 4SM BKN004 OVC009 00/M01 A3001 RMK AO1
Loading
Personal Weather Stations






























Interactive Weather Map New forecast layout! Learn more

10-Day Weather Forecast

Advertisements
Track Severe Weather on mobile